createdAt,value
2022-10-26T00:01:48.940Z,100.00
2022-10-26T00:07:14.156Z,100.00
2022-10-26T00:12:18.067Z,100.00
2022-10-26T00:17:26.002Z,100.00
2022-10-26T00:22:41.976Z,100.00
2022-10-26T00:28:00.258Z,100.00
2022-10-26T00:33:16.330Z,100.00
2022-10-26T00:38:29.349Z,100.00
2022-10-26T00:43:50.799Z,100.00
2022-10-26T00:49:08.773Z,100.00
2022-10-26T00:54:25.088Z,100.00
2022-10-26T00:59:33.659Z,100.00
2022-10-26T01:04:39.496Z,100.00
2022-10-26T01:09:43.011Z,100.00
2022-10-26T01:14:45.911Z,100.00
2022-10-26T01:20:18.231Z,100.00
2022-10-26T01:25:42.471Z,100.00
2022-10-26T01:30:48.755Z,100.00
2022-10-26T01:35:58.780Z,100.00
2022-10-26T01:41:07.303Z,100.00
2022-10-26T01:46:12.711Z,100.00
2022-10-26T01:51:16.347Z,100.00
2022-10-26T01:56:22.301Z,100.00
2022-10-26T02:02:11.116Z,100.00
2022-10-26T02:07:22.962Z,100.00
2022-10-26T02:12:34.835Z,100.00
2022-10-26T02:17:48.668Z,100.00
2022-10-26T02:22:53.844Z,100.00
2022-10-26T02:28:00.223Z,100.00
2022-10-26T02:33:06.608Z,100.00
2022-10-26T02:38:11.919Z,100.00
2022-10-26T02:43:20.735Z,100.00
2022-10-26T02:48:25.354Z,100.00
2022-10-26T02:53:32.165Z,100.00
2022-10-26T02:58:41.318Z,100.00
2022-10-26T03:03:45.912Z,100.00
2022-10-26T03:08:48.844Z,100.00
2022-10-26T03:13:51.657Z,100.00
2022-10-26T03:18:55.802Z,100.00
2022-10-26T03:23:58.686Z,100.00
2022-10-26T03:29:01.603Z,100.00
2022-10-26T03:34:05.747Z,100.00
2022-10-26T03:39:08.521Z,100.00
2022-10-26T03:44:11.356Z,100.00
2022-10-26T03:49:15.552Z,100.00
2022-10-26T03:54:18.514Z,100.00
2022-10-26T03:59:21.334Z,100.00
2022-10-26T04:04:25.578Z,100.00
2022-10-26T04:09:28.497Z,100.00
2022-10-26T04:14:31.252Z,100.00
2022-10-26T04:19:35.428Z,100.00
2022-10-26T04:24:38.191Z,100.00
2022-10-26T04:29:41.139Z,100.00
2022-10-26T04:34:45.274Z,100.00
2022-10-26T04:39:48.078Z,100.00
2022-10-26T04:44:50.820Z,100.00
2022-10-26T04:49:54.949Z,100.00
2022-10-26T04:54:57.770Z,100.00
2022-10-26T05:00:01.268Z,100.00
2022-10-26T05:05:07.911Z,100.00
2022-10-26T05:10:13.314Z,100.00
2022-10-26T05:15:16.382Z,100.00
2022-10-26T05:20:20.637Z,100.00
2022-10-26T05:25:23.597Z,100.00
2022-10-26T05:30:26.487Z,100.00
2022-10-26T05:35:30.813Z,100.00
2022-10-26T05:40:33.562Z,100.00
2022-10-26T05:45:36.299Z,100.00
2022-10-26T05:50:40.470Z,100.00
2022-10-26T05:55:44.411Z,100.00
2022-10-26T06:01:07.813Z,100.00
2022-10-26T06:06:14.059Z,100.00
2022-10-26T06:11:17.321Z,100.00
2022-10-26T06:16:30.262Z,100.00
2022-10-26T06:21:48.187Z,100.00
2022-10-26T06:26:58.912Z,100.00
2022-10-26T06:32:02.720Z,100.00
2022-10-26T06:37:08.694Z,100.00
2022-10-26T06:42:12.347Z,100.00
2022-10-26T06:47:23.446Z,100.00
2022-10-26T06:52:35.089Z,100.00
2022-10-26T06:57:40.445Z,100.00
2022-10-26T07:02:43.484Z,100.00
2022-10-26T07:07:49.108Z,100.00
2022-10-26T07:12:52.142Z,100.00
2022-10-26T07:17:54.886Z,100.00
2022-10-26T07:22:59.445Z,100.00
2022-10-26T07:28:02.875Z,100.00
2022-10-26T07:33:08.470Z,100.00
2022-10-26T07:38:14.896Z,100.00
2022-10-26T07:43:17.626Z,100.00
2022-10-26T07:48:20.406Z,100.00
2022-10-26T07:53:27.847Z,100.00
2022-10-26T07:58:30.929Z,100.00
2022-10-26T08:03:33.689Z,100.00
2022-10-26T08:08:38.582Z,100.00
2022-10-26T08:13:41.870Z,100.00
2022-10-26T08:18:44.716Z,100.00
2022-10-26T08:23:48.822Z,100.00
2022-10-26T08:28:52.344Z,100.00
2022-10-26T08:33:55.163Z,100.00
2022-10-26T08:44:11.651Z,100.00
2022-10-26T08:49:24.283Z,100.00
2022-10-26T08:54:36.704Z,100.00
2022-10-26T08:59:44.483Z,100.00
2022-10-26T09:04:47.439Z,100.00
2022-10-26T09:10:01.039Z,100.00
2022-10-26T09:15:15.211Z,100.00
2022-10-26T09:20:46.151Z,100.00
2022-10-26T09:25:59.552Z,100.00
2022-10-26T09:31:03.810Z,100.00
2022-10-26T09:36:13.234Z,100.00
2022-10-26T09:41:29.581Z,100.00
2022-10-26T09:46:45.951Z,100.00
2022-10-26T09:51:49.859Z,100.00
2022-10-26T09:57:00.250Z,100.00
2022-10-26T10:02:33.094Z,100.00
2022-10-26T10:07:39.973Z,100.00
2022-10-26T10:12:44.704Z,100.00
2022-10-26T10:17:53.317Z,100.00
2022-10-26T10:23:01.081Z,100.00
2022-10-26T10:28:22.483Z,100.00
2022-10-26T10:33:34.579Z,100.00
2022-10-26T10:38:42.580Z,100.00
2022-10-26T10:43:50.530Z,100.00
2022-10-26T10:48:57.155Z,100.00
2022-10-26T10:53:59.974Z,100.00
2022-10-26T10:59:28.401Z,100.00
2022-10-26T11:04:49.239Z,100.00
2022-10-26T11:15:08.475Z,99.98
2022-10-26T11:20:16.945Z,99.96
2022-10-26T11:25:26.471Z,99.05
2022-10-26T11:30:32.186Z,98.42
2022-10-26T11:35:43.475Z,98.24
2022-10-26T11:40:54.716Z,97.54
2022-10-26T11:46:06.214Z,95.75
2022-10-26T11:51:15.211Z,95.27
2022-10-26T11:56:26.231Z,94.75
2022-10-26T12:01:31.625Z,95.44
2022-10-26T12:06:36.256Z,95.04
2022-10-26T12:11:47.348Z,94.98
2022-10-26T12:17:01.122Z,95.24
2022-10-26T12:29:10.845Z,92.77
2022-10-26T12:34:23.138Z,92.40
2022-10-26T12:39:29.501Z,91.30
2022-10-26T12:44:35.049Z,90.82
2022-10-26T12:50:19.685Z,90.75
2022-10-26T12:55:57.371Z,90.88
2022-10-26T13:01:47.916Z,91.73
2022-10-26T13:07:20.821Z,90.84
2022-10-26T13:12:23.933Z,89.91
2022-10-26T13:17:29.242Z,89.39
2022-10-26T13:22:34.031Z,89.44
2022-10-26T13:27:45.002Z,88.90
2022-10-26T13:32:53.541Z,89.61
2022-10-26T13:37:58.479Z,90.07
2022-10-26T13:43:07.999Z,89.98
2022-10-26T13:48:17.166Z,90.21
2022-10-26T13:53:26.256Z,89.28
2022-10-26T13:58:34.786Z,86.29
2022-10-26T14:03:38.248Z,86.17
2022-10-26T14:08:44.489Z,87.08
2022-10-26T14:13:49.746Z,86.54
2022-10-26T14:18:52.614Z,86.81
2022-10-26T14:23:58.778Z,86.32
2022-10-26T14:29:02.804Z,86.55
2022-10-26T14:34:05.963Z,85.96
2022-10-26T14:39:19.143Z,87.96
2022-10-26T14:44:24.340Z,89.04
2022-10-26T14:49:29.315Z,90.54
2022-10-26T14:54:35.084Z,91.97
2022-10-26T14:59:37.983Z,93.55
2022-10-26T15:04:42.401Z,94.20
2022-10-26T15:09:48.575Z,95.36
2022-10-26T15:14:52.982Z,93.34
2022-10-26T15:19:57.820Z,91.96
2022-10-26T15:25:05.085Z,91.41
2022-10-26T15:30:19.028Z,91.84
2022-10-26T15:35:36.900Z,93.51
2022-10-26T15:40:44.476Z,94.38
2022-10-26T15:45:49.074Z,94.06
2022-10-26T15:50:52.040Z,94.54
2022-10-26T15:55:58.803Z,95.83
2022-10-26T16:01:01.869Z,96.25
2022-10-26T16:06:05.346Z,97.90
2022-10-26T16:11:09.632Z,98.38
2022-10-26T16:16:14.939Z,97.67
2022-10-26T16:21:19.740Z,99.07
2022-10-26T16:26:24.970Z,99.31
2022-10-26T16:31:28.951Z,99.72
2022-10-26T16:36:34.562Z,100.00
2022-10-26T16:41:41.488Z,100.00
2022-10-26T16:46:44.376Z,100.00
2022-10-26T16:51:47.224Z,100.00
2022-10-26T16:56:53.874Z,100.00
2022-10-26T17:01:57.036Z,100.00
2022-10-26T17:07:00.021Z,100.00
2022-10-26T17:12:04.530Z,100.00
2022-10-26T17:17:07.339Z,100.00
2022-10-26T17:22:12.611Z,100.00
2022-10-26T17:27:17.424Z,100.00
2022-10-26T17:32:22.268Z,100.00
2022-10-26T17:37:25.328Z,100.00
2022-10-26T17:42:38.368Z,100.00
2022-10-26T17:47:50.331Z,100.00
2022-10-26T17:53:07.906Z,100.00
2022-10-26T18:10:13.808Z,100.00
2022-10-26T18:15:30.934Z,100.00
2022-10-26T18:20:47.923Z,100.00
2022-10-26T18:27:05.864Z,100.00
2022-10-26T18:32:11.436Z,100.00
2022-10-26T18:37:14.356Z,100.00
2022-10-26T18:42:17.249Z,100.00
2022-10-26T18:47:21.719Z,100.00
2022-10-26T18:54:00.991Z,100.00
2022-10-26T18:59:14.832Z,100.00
2022-10-26T19:04:38.209Z,100.00
2022-10-26T19:10:15.383Z,100.00
2022-10-26T19:15:33.811Z,100.00
2022-10-26T19:20:42.722Z,100.00
2022-10-26T19:25:48.235Z,100.00
2022-10-26T19:30:51.538Z,100.00
2022-10-26T19:36:09.963Z,100.00
2022-10-26T19:41:52.652Z,100.00
2022-10-26T19:46:58.837Z,100.00
2022-10-26T19:52:05.311Z,100.00
2022-10-26T19:57:36.572Z,100.00
2022-10-26T20:02:57.290Z,100.00
2022-10-26T20:08:07.668Z,100.00
2022-10-26T20:13:42.239Z,100.00
2022-10-26T20:18:52.002Z,100.00
2022-10-26T20:24:09.902Z,100.00
2022-10-26T20:29:13.323Z,100.00
2022-10-26T20:34:18.548Z,100.00
2022-10-26T20:39:31.871Z,100.00
2022-10-26T20:44:48.774Z,100.00
2022-10-26T20:50:00.845Z,100.00
2022-10-26T20:55:14.961Z,100.00
2022-10-26T21:00:24.235Z,100.00
2022-10-26T21:05:30.232Z,100.00
2022-10-26T21:10:39.964Z,100.00
2022-10-26T21:15:48.049Z,100.00
2022-10-26T21:20:58.558Z,100.00
2022-10-26T21:26:03.542Z,100.00
2022-10-26T21:31:10.337Z,100.00
2022-10-26T21:36:14.480Z,100.00
2022-10-26T21:41:20.362Z,100.00
2022-10-26T21:46:49.197Z,100.00
2022-10-26T21:51:56.451Z,100.00
2022-10-26T21:57:08.308Z,100.00
2022-10-26T22:02:18.100Z,100.00
2022-10-26T22:07:26.519Z,100.00
2022-10-26T22:12:31.184Z,100.00
2022-10-26T22:17:42.067Z,100.00
2022-10-26T22:22:48.134Z,100.00
2022-10-26T22:27:52.641Z,100.00
2022-10-26T22:32:55.965Z,100.00
2022-10-26T22:37:59.114Z,100.00
2022-10-26T22:43:03.397Z,100.00
2022-10-26T22:53:11.797Z,100.00
2022-10-26T22:58:16.416Z,100.00
2022-10-26T23:03:34.468Z,100.00
2022-10-26T23:08:53.598Z,100.00
2022-10-26T23:14:02.296Z,100.00
2022-10-26T23:19:10.234Z,100.00
2022-10-26T23:24:19.526Z,100.00
2022-10-26T23:29:35.144Z,100.00
2022-10-26T23:34:51.949Z,100.00
2022-10-26T23:39:57.331Z,100.00
2022-10-26T23:45:02.728Z,100.00
2022-10-26T23:50:16.006Z,100.00
2022-10-26T23:55:24.720Z,100.00
